Time;durP1;ratioP1;P1;durP2;ratioP2;P2;SDS_P1;SDS_P2;PMS_P1;PMS_P2;Temp;Humidity;BMP_temperature;BMP_pressure;BME280_temperature;BME280_humidity;BME280_pressure;Samples;Min_cycle;Max_cycle;Signal;HPM_P1;HPM_P2
2021/12/11 00:03:42;;;;;;;160.40;126.10;;;22.90;43.40;;;;;;5030080;55;21110;-39
2021/12/11 00:08:45;;;;;;;154.57;123.30;;;22.90;43.30;;;;;;4838192;55;21552;-43
2021/12/11 00:13:46;;;;;;;154.32;121.13;;;22.90;43.30;;;;;;4773214;55;21053;-39
2021/12/11 00:18:57;;;;;;;152.25;118.75;;;22.90;43.20;;;;;;4748622;55;20989;-36
2021/12/11 00:24:11;;;;;;;148.93;115.45;;;22.90;43.20;;;;;;4905890;55;21013;-40
2021/12/11 00:29:14;;;;;;;148.35;113.85;;;22.90;43.20;;;;;;4791355;55;21076;-38
2021/12/11 00:34:17;;;;;;;149.32;117.97;;;22.90;43.20;;;;;;4818556;55;21029;-40
2021/12/11 00:39:18;;;;;;;149.77;117.87;;;22.90;43.20;;;;;;4748478;55;20974;-39
2021/12/11 00:44:32;;;;;;;148.48;117.87;;;22.90;43.10;;;;;;4777099;55;21539;-39
2021/12/11 00:49:33;;;;;;;143.02;114.40;;;22.90;43.00;;;;;;4796696;55;21038;-38
2021/12/11 00:54:43;;;;;;;143.68;115.78;;;22.90;43.00;;;;;;5015382;55;21005;-36
2021/12/11 00:59:44;;;;;;;142.25;113.10;;;22.90;43.00;;;;;;4934173;55;21520;-37
2021/12/11 01:04:45;;;;;;;144.40;112.90;;;22.90;42.90;;;;;;4845677;54;21050;-39
2021/12/11 01:09:54;;;;;;;142.23;112.15;;;22.90;43.00;;;;;;4903505;54;21066;-40
2021/12/11 01:15:13;;;;;;;141.48;108.93;;;22.90;42.90;;;;;;4817813;55;21002;-41
2021/12/11 01:20:36;;;;;;;138.07;108.82;;;22.90;42.80;;;;;;4811302;55;21460;-41
2021/12/11 01:25:36;;;;;;;142.75;111.10;;;22.90;42.80;;;;;;4747656;58;21484;-35
2021/12/11 01:30:40;;;;;;;136.55;106.60;;;22.90;42.70;;;;;;5008708;54;21034;-47
2021/12/11 01:35:42;;;;;;;131.70;104.05;;;22.90;42.70;;;;;;4939736;55;20990;-39
2021/12/11 01:40:47;;;;;;;139.27;108.10;;;22.90;42.70;;;;;;4761185;55;21034;-38
2021/12/11 01:45:50;;;;;;;131.60;103.72;;;22.90;42.60;;;;;;5121433;55;21025;-38
2021/12/11 01:51:03;;;;;;;128.05;98.70;;;22.90;42.60;;;;;;4938230;55;21053;-35
2021/12/11 01:56:14;;;;;;;131.45;102.40;;;22.90;42.60;;;;;;5095925;55;21074;-35
2021/12/11 02:01:21;;;;;;;132.20;102.60;;;22.90;42.60;;;;;;4789096;55;21049;-35
2021/12/11 02:06:26;;;;;;;;;;;22.90;42.50;;;;;;4751262;58;21062;-38
2021/12/11 02:11:30;;;;;;;125.85;95.18;;;22.80;42.40;;;;;;5039580;55;20077;-38
2021/12/11 02:16:43;;;;;;;125.38;99.20;;;22.80;42.40;;;;;;4752909;55;21566;-38
2021/12/11 02:21:48;;;;;;;122.40;99.40;;;22.80;42.40;;;;;;4782170;55;21464;-33
2021/12/11 02:26:49;;;;;;;123.07;99.00;;;22.80;42.30;;;;;;4747579;58;21037;-37
2021/12/11 02:32:32;;;;;;;120.70;93.43;;;22.80;42.40;;;;;;4799191;54;21554;-40
2021/12/11 02:37:39;;;;;;;122.13;97.75;;;22.80;42.30;;;;;;4747841;58;21543;-37
2021/12/11 02:43:08;;;;;;;124.18;96.78;;;22.80;42.20;;;;;;4803688;55;21528;-36
2021/12/11 02:48:30;;;;;;;117.30;91.60;;;22.80;42.20;;;;;;4853922;55;21010;-39
2021/12/11 02:53:37;;;;;;;122.05;93.78;;;22.80;42.20;;;;;;4889532;55;21049;-40
2021/12/11 02:58:40;;;;;;;;;;;22.80;42.20;;;;;;4751613;55;21113;-41
2021/12/11 03:03:45;;;;;;;117.68;92.62;;;22.80;42.10;;;;;;5002640;55;20116;-37
2021/12/11 03:08:48;;;;;;;117.82;92.78;;;22.80;42.10;;;;;;5099108;55;21476;-36
2021/12/11 03:13:50;;;;;;;111.90;88.87;;;22.80;42.00;;;;;;5135416;55;21082;-39
2021/12/11 03:18:52;;;;;;;117.18;91.63;;;22.80;42.00;;;;;;4937279;55;21539;-39
2021/12/11 03:23:55;;;;;;;115.47;89.15;;;22.80;42.00;;;;;;5062897;55;21030;-36
2021/12/11 03:28:56;;;;;;;116.97;90.15;;;22.80;41.90;;;;;;4783819;55;21014;-37
2021/12/11 03:33:58;;;;;;;117.43;92.00;;;22.80;41.90;;;;;;4766232;55;21102;-37
2021/12/11 03:39:08;;;;;;;113.95;87.80;;;22.90;41.90;;;;;;4803319;55;21047;-38
2021/12/11 03:44:10;;;;;;;116.28;89.57;;;22.80;41.80;;;;;;4908576;55;21047;-38
2021/12/11 03:49:15;;;;;;;107.93;86.25;;;22.80;41.80;;;;;;4747062;55;21049;-35
2021/12/11 03:54:23;;;;;;;114.12;88.97;;;22.80;41.80;;;;;;4828400;55;21036;-48
2021/12/11 03:59:24;;;;;;;107.15;84.95;;;22.80;41.70;;;;;;4748515;55;21057;-39
2021/12/11 04:04:32;;;;;;;107.40;83.87;;;22.80;41.70;;;;;;4938995;55;21001;-39
2021/12/11 04:09:34;;;;;;;112.15;87.55;;;22.80;41.60;;;;;;4782394;55;21002;-36
2021/12/11 04:14:41;;;;;;;108.35;83.30;;;22.90;41.70;;;;;;4748722;55;21075;-36
2021/12/11 04:19:42;;;;;;;104.12;82.90;;;22.90;41.60;;;;;;4850138;55;21062;-38
2021/12/11 04:24:44;;;;;;;108.93;83.57;;;22.90;41.60;;;;;;4748386;58;21467;-38
2021/12/11 04:29:50;;;;;;;110.25;82.50;;;22.90;41.60;;;;;;4833539;55;21019;-40
2021/12/11 04:34:51;;;;;;;104.32;82.57;;;22.90;41.50;;;;;;4968640;55;21006;-38
2021/12/11 04:40:08;;;;;;;105.85;80.60;;;22.90;41.40;;;;;;4774061;55;21073;-33
2021/12/11 04:45:13;;;;;;;101.78;81.30;;;23.00;41.30;;;;;;4779125;55;21010;-36
2021/12/11 04:50:27;;;;;;;104.07;80.80;;;23.00;41.30;;;;;;4748077;58;20986;-36
2021/12/11 05:10:21;;;;;;;99.37;77.47;;;23.00;41.20;;;;;;4854225;55;21083;-37
2021/12/11 05:15:29;;;;;;;104.63;79.80;;;23.10;41.30;;;;;;4904647;55;21535;-38
2021/12/11 05:20:32;;;;;;;98.40;75.82;;;23.10;41.20;;;;;;4747874;58;20990;-40
2021/12/11 05:25:34;;;;;;;101.10;79.40;;;23.10;41.20;;;;;;4972330;55;21010;-39
2021/12/11 05:30:38;;;;;;;102.22;77.65;;;23.10;41.30;;;;;;4899176;55;21070;-37
2021/12/11 05:35:40;;;;;;;101.65;78.75;;;23.10;41.20;;;;;;4781693;55;20994;-36
2021/12/11 05:40:46;;;;;;;101.72;79.15;;;23.10;41.20;;;;;;5034602;55;20994;-39
2021/12/11 05:45:48;;;;;;;101.10;76.93;;;23.10;41.20;;;;;;4853078;55;21145;-35
2021/12/11 05:50:55;;;;;;;98.40;76.40;;;23.10;41.20;;;;;;5104213;55;21014;-37
2021/12/11 05:55:57;;;;;;;101.65;76.85;;;23.10;41.30;;;;;;4784023;55;21476;-33
2021/12/11 06:00:58;;;;;;;95.93;75.85;;;23.10;41.30;;;;;;4747856;58;21515;-40
2021/12/11 06:06:00;;;;;;;97.47;74.32;;;23.10;41.30;;;;;;4860217;55;21069;-37
2021/12/11 06:11:01;;;;;;;100.30;77.72;;;23.20;41.40;;;;;;4748097;58;21109;-40
2021/12/11 06:16:04;;;;;;;100.82;77.22;;;23.20;41.40;;;;;;4748164;58;21008;-38
2021/12/11 06:21:05;;;;;;;97.37;75.25;;;23.10;41.40;;;;;;4748515;55;20998;-36
2021/12/11 06:26:06;;;;;;;100.87;77.35;;;23.10;41.50;;;;;;4849130;55;21018;-38
2021/12/11 06:31:07;;;;;;;100.95;76.32;;;23.20;41.40;;;;;;4848588;55;21018;-41
2021/12/11 06:36:10;;;;;;;98.10;75.75;;;23.10;41.40;;;;;;4748089;58;21009;-37
2021/12/11 06:41:13;;;;;;;98.20;75.43;;;23.20;41.50;;;;;;4802425;55;21555;-38
2021/12/11 06:46:15;;;;;;;99.03;75.00;;;23.10;41.40;;;;;;4787801;55;21069;-37
2021/12/11 06:51:16;;;;;;;101.32;78.18;;;23.20;41.50;;;;;;4748044;58;21005;-40
2021/12/11 06:56:20;;;;;;;100.93;76.62;;;23.20;41.50;;;;;;4911485;55;21087;-34
2021/12/11 07:01:23;;;;;;;98.72;75.20;;;23.20;41.50;;;;;;4807708;55;20999;-36
2021/12/11 07:06:25;;;;;;;102.87;78.75;;;23.10;41.40;;;;;;4773169;55;21026;-35
2021/12/11 07:11:26;;;;;;;101.72;77.35;;;23.20;41.50;;;;;;4945631;55;21038;-38
2021/12/11 07:16:28;;;;;;;100.57;77.32;;;23.10;41.40;;;;;;4927719;55;20994;-35
2021/12/11 07:21:29;;;;;;;104.35;80.78;;;23.10;41.40;;;;;;4779135;55;21034;-36
2021/12/11 07:26:33;;;;;;;103.95;77.60;;;23.10;42.10;;;;;;4757533;55;21018;-32
2021/12/11 07:31:34;;;;;;;103.87;80.80;;;23.10;41.40;;;;;;4750321;55;21543;-41
2021/12/11 07:36:35;;;;;;;104.12;81.72;;;23.10;41.40;;;;;;4996106;55;21005;-32
2021/12/11 07:41:36;;;;;;;104.47;80.97;;;23.10;41.40;;;;;;4784047;55;21009;-36
2021/12/11 07:46:37;;;;;;;107.22;81.15;;;23.10;41.40;;;;;;5135613;54;21536;-38
2021/12/11 07:51:39;;;;;;;104.53;82.90;;;23.10;41.40;;;;;;4813407;55;21009;-33
2021/12/11 07:56:40;;;;;;;107.28;82.95;;;23.10;41.40;;;;;;4748354;55;20993;-41
2021/12/11 08:01:49;;;;;;;110.55;82.68;;;23.10;41.30;;;;;;4791519;55;21507;-34
2021/12/11 08:06:51;;;;;;;107.47;82.37;;;23.10;41.40;;;;;;4846574;55;21017;-39
2021/12/11 08:11:52;;;;;;;109.63;83.85;;;23.10;41.40;;;;;;4886530;55;21021;-33
2021/12/11 08:16:58;;;;;;;111.65;84.97;;;23.10;41.30;;;;;;4839718;55;20990;-35
2021/12/11 08:22:02;;;;;;;114.05;87.82;;;23.10;41.30;;;;;;4748117;58;21635;-34
2021/12/11 08:27:11;;;;;;;111.57;84.70;;;23.10;41.30;;;;;;4865806;55;21010;-35
2021/12/11 08:32:12;;;;;;;112.97;84.05;;;23.10;41.30;;;;;;4891159;54;21504;-36
2021/12/11 08:37:17;;;;;;;115.55;89.87;;;23.10;41.30;;;;;;4998840;55;21041;-29
2021/12/11 08:42:23;;;;;;;119.18;92.60;;;23.10;41.30;;;;;;4861438;55;20998;-36
2021/12/11 08:47:25;;;;;;;123.33;95.07;;;23.10;41.30;;;;;;4748005;58;21567;-35
2021/12/11 08:52:34;;;;;;;119.03;91.22;;;23.10;41.30;;;;;;4747924;58;20990;-35
2021/12/11 08:57:39;;;;;;;123.68;95.72;;;23.10;41.30;;;;;;5060767;55;21002;-31
2021/12/11 09:02:55;;;;;;;122.47;92.65;;;23.10;41.30;;;;;;4750781;55;20989;-33
2021/12/11 09:08:14;;;;;;;120.45;94.80;;;23.10;41.30;;;;;;4799087;55;21089;-35
2021/12/11 09:16:49;;;;;;;129.73;97.85;;;23.10;41.30;;;;;;4801583;55;21551;-34
2021/12/11 09:22:11;;;;;;;;;;;23.10;41.30;;;;;;4811855;54;20993;-31
2021/12/11 09:27:40;;;;;;;135.43;102.55;;;23.10;41.80;;;;;;4787062;55;20120;-32
2021/12/11 09:32:50;;;;;;;134.35;103.65;;;23.10;41.30;;;;;;4748067;58;21456;-28
2021/12/11 09:37:56;;;;;;;136.50;104.35;;;23.10;41.40;;;;;;4765787;55;21048;-34
2021/12/11 09:42:57;;;;;;;139.60;105.97;;;23.10;41.40;;;;;;4747969;58;21623;-34
2021/12/11 09:48:03;;;;;;;134.93;105.85;;;23.10;41.50;;;;;;4839997;55;21069;-32
2021/12/11 09:53:04;;;;;;;138.18;107.45;;;23.10;41.40;;;;;;4828182;55;21036;-34
2021/12/11 09:58:10;;;;;;;133.45;103.75;;;23.10;41.50;;;;;;4826157;55;21428;-33
2021/12/11 10:03:15;;;;;;;144.97;112.40;;;23.10;41.40;;;;;;4789447;55;21021;-31
2021/12/11 10:08:38;;;;;;;138.70;106.22;;;23.10;41.50;;;;;;4844567;55;21029;-29
2021/12/11 10:14:08;;;;;;;151.63;115.22;;;23.10;41.40;;;;;;4749227;55;21476;-28
2021/12/11 10:19:12;;;;;;;146.85;115.30;;;23.10;41.40;;;;;;4826205;55;21123;-32
2021/12/11 10:24:16;;;;;;;148.30;113.90;;;23.10;41.50;;;;;;5031625;55;21519;-27
2021/12/11 10:29:17;;;;;;;152.82;118.22;;;23.20;41.50;;;;;;4973883;55;21097;-33
2021/12/11 10:34:23;;;;;;;153.00;117.40;;;23.10;41.50;;;;;;4747740;55;21085;-33
2021/12/11 10:39:28;;;;;;;155.35;120.03;;;23.20;41.50;;;;;;4865871;55;21065;-33
2021/12/11 10:44:33;;;;;;;152.52;118.90;;;23.20;41.60;;;;;;4859214;55;21472;-29
2021/12/11 10:49:37;;;;;;;163.02;123.70;;;23.10;41.50;;;;;;4746607;55;21009;-39
2021/12/11 10:54:38;;;;;;;164.85;127.82;;;23.20;41.70;;;;;;4792723;55;21555;-35
2021/12/11 10:59:44;;;;;;;159.35;122.95;;;23.20;41.60;;;;;;4747690;55;21130;-37
2021/12/11 11:04:57;;;;;;;163.80;123.25;;;23.10;41.60;;;;;;4801165;55;20986;-35
2021/12/11 11:10:01;;;;;;;167.68;128.35;;;23.20;41.70;;;;;;4755447;55;21483;-37
2021/12/11 11:15:03;;;;;;;172.13;132.50;;;23.20;41.70;;;;;;4880649;55;21002;-37
2021/12/11 11:20:12;;;;;;;169.05;132.02;;;23.20;41.80;;;;;;4770860;55;21030;-37
2021/12/11 11:25:25;;;;;;;174.40;127.20;;;23.20;41.80;;;;;;4805292;55;20974;-35
2021/12/11 11:30:34;;;;;;;172.07;130.15;;;23.10;41.70;;;;;;4913095;55;21085;-39
2021/12/11 11:35:42;;;;;;;177.10;135.52;;;23.10;41.80;;;;;;4760503;55;21459;-38
2021/12/11 11:40:47;;;;;;;180.37;138.70;;;23.20;42.00;;;;;;4747970;56;21974;-35
2021/12/11 11:45:52;;;;;;;176.68;134.85;;;23.20;42.00;;;;;;5015833;55;21065;-34
2021/12/11 11:50:58;;;;;;;185.20;139.32;;;23.10;42.00;;;;;;4785843;55;21500;-37
2021/12/11 11:56:04;;;;;;;186.32;140.25;;;23.10;42.00;;;;;;4891972;55;21065;-38
2021/12/11 12:01:22;;;;;;;182.57;139.43;;;23.10;42.00;;;;;;4883427;55;21056;-37
2021/12/11 12:06:25;;;;;;;188.35;141.10;;;23.10;42.10;;;;;;4747969;58;20998;-35
2021/12/11 12:11:31;;;;;;;180.48;140.43;;;23.10;42.10;;;;;;4769079;55;21635;-34
2021/12/11 12:16:34;;;;;;;188.60;143.30;;;23.10;42.10;;;;;;4749748;55;21610;-35
2021/12/11 12:21:37;;;;;;;187.82;145.25;;;23.10;42.20;;;;;;4836827;55;20993;-34
2021/12/11 12:26:39;;;;;;;191.52;141.62;;;23.20;42.20;;;;;;4812266;55;21010;-37
2021/12/11 12:31:50;;;;;;;187.90;142.68;;;23.20;42.20;;;;;;4829242;54;21022;-34
2021/12/11 12:36:53;;;;;;;190.80;144.13;;;23.20;42.20;;;;;;4748180;58;21527;-35
2021/12/11 12:42:15;;;;;;;193.90;147.75;;;23.20;42.90;;;;;;4974449;55;21242;-31
2021/12/11 12:47:21;;;;;;;183.98;141.55;;;23.20;42.30;;;;;;4794054;55;21076;-36
2021/12/11 12:52:32;;;;;;;187.10;143.60;;;23.20;42.30;;;;;;4951833;55;21117;-33
2021/12/11 12:57:37;;;;;;;190.62;146.02;;;23.20;42.30;;;;;;4982441;55;21009;-35
2021/12/11 13:02:40;;;;;;;198.57;150.98;;;23.20;42.30;;;;;;4771956;55;21018;-34
2021/12/11 13:07:43;;;;;;;197.50;145.60;;;23.20;42.30;;;;;;4747630;58;21568;-33
2021/12/11 13:12:47;;;;;;;191.45;143.77;;;23.20;42.30;;;;;;4848424;55;21061;-37
2021/12/11 13:17:53;;;;;;;189.40;144.37;;;23.20;42.30;;;;;;4748076;58;21041;-34
2021/12/11 13:22:55;;;;;;;201.65;151.98;;;23.20;42.40;;;;;;4785593;55;20993;-35
2021/12/11 13:27:59;;;;;;;195.00;146.85;;;23.20;42.40;;;;;;4747297;58;21037;-38
2021/12/11 13:33:05;;;;;;;196.23;150.90;;;23.20;42.40;;;;;;4747986;55;21522;-37
2021/12/11 13:38:08;;;;;;;194.57;152.35;;;23.20;42.40;;;;;;4823546;55;21582;-41
2021/12/11 13:43:10;;;;;;;190.43;146.82;;;23.20;42.40;;;;;;4797185;55;21598;-37
2021/12/11 13:48:13;;;;;;;195.12;152.25;;;23.20;42.50;;;;;;4843608;55;21013;-37
2021/12/11 13:53:14;;;;;;;194.82;148.73;;;23.20;42.50;;;;;;4748096;58;21416;-40
2021/12/11 13:58:15;;;;;;;192.20;146.65;;;23.20;42.50;;;;;;4800855;54;21124;-39
2021/12/11 14:03:18;;;;;;;195.82;146.60;;;23.20;42.50;;;;;;4799533;55;20982;-35
2021/12/11 14:08:19;;;;;;;187.95;143.13;;;23.20;42.50;;;;;;5022867;55;21006;-35
2021/12/11 14:13:22;;;;;;;193.70;146.87;;;23.20;42.50;;;;;;4748124;58;21471;-36
2021/12/11 14:18:23;;;;;;;179.57;142.13;;;23.20;42.50;;;;;;4807860;55;21063;-35
2021/12/11 14:23:29;;;;;;;186.57;146.37;;;23.30;42.50;;;;;;4806208;55;21077;-36
2021/12/11 14:28:32;;;;;;;192.98;150.90;;;23.20;42.50;;;;;;4829951;55;21512;-33
2021/12/11 14:33:33;;;;;;;191.18;151.82;;;23.20;42.50;;;;;;4747744;58;20970;-35
2021/12/11 14:38:36;;;;;;;187.10;146.85;;;23.30;42.50;;;;;;4932823;55;21496;-39
2021/12/11 14:43:39;;;;;;;186.77;146.87;;;23.30;42.50;;;;;;4747809;58;21025;-40
2021/12/11 14:48:41;;;;;;;181.23;144.20;;;23.30;42.50;;;;;;4971401;55;21058;-37
2021/12/11 14:53:46;;;;;;;187.23;146.75;;;23.30;42.50;;;;;;4931830;55;20981;-35
2021/12/11 14:58:48;;;;;;;187.27;148.18;;;23.30;42.50;;;;;;4747823;55;21114;-38
2021/12/11 15:03:51;;;;;;;183.75;146.77;;;23.30;43.10;;;;;;4795952;55;21026;-31
2021/12/11 15:08:53;;;;;;;188.65;146.73;;;23.30;42.50;;;;;;4877802;55;21005;-34
2021/12/11 15:13:56;;;;;;;181.43;142.80;;;23.30;42.50;;;;;;5030408;55;20989;-37
2021/12/11 15:18:58;;;;;;;182.32;144.07;;;23.30;42.40;;;;;;4748112;55;21559;-36
2021/12/11 15:24:00;;;;;;;181.73;144.73;;;23.30;42.40;;;;;;4747766;58;20982;-42
2021/12/11 15:29:01;;;;;;;186.52;145.80;;;23.30;42.30;;;;;;4838924;55;21539;-32
2021/12/11 15:34:05;;;;;;;179.80;143.80;;;23.40;42.40;;;;;;4805381;55;20974;-35
2021/12/11 15:39:25;;;;;;;188.62;147.27;;;23.30;42.30;;;;;;4747604;58;20993;-35
2021/12/11 15:44:30;;;;;;;184.70;142.73;;;23.40;42.30;;;;;;4848104;55;21002;-32
2021/12/11 15:49:31;;;;;;;174.82;140.45;;;23.40;42.30;;;;;;4801736;55;21619;-38
2021/12/11 15:54:32;;;;;;;181.45;142.40;;;23.40;42.30;;;;;;4789751;55;20982;-38
2021/12/11 15:59:35;;;;;;;170.90;140.00;;;23.40;42.20;;;;;;4748477;55;21121;-37
2021/12/11 16:04:36;;;;;;;174.75;139.95;;;23.40;42.30;;;;;;5014968;55;20997;-34
2021/12/11 16:09:42;;;;;;;175.87;141.02;;;23.40;42.20;;;;;;4919092;55;21089;-34
2021/12/11 16:14:43;;;;;;;174.02;139.43;;;23.40;42.10;;;;;;4996426;55;21487;-37
2021/12/11 16:19:49;;;;;;;170.48;138.32;;;23.40;42.10;;;;;;4883192;54;21030;-36
2021/12/11 16:25:03;;;;;;;170.57;138.25;;;23.40;42.10;;;;;;4762022;55;21113;-36
2021/12/11 16:30:09;;;;;;;168.93;136.65;;;23.40;42.10;;;;;;4818616;55;21520;-35
2021/12/11 16:35:11;;;;;;;168.65;135.07;;;23.40;42.00;;;;;;4971414;55;20986;-34
2021/12/11 16:40:19;;;;;;;163.85;131.00;;;23.40;42.00;;;;;;4838799;55;21037;-35
2021/12/11 16:45:20;;;;;;;169.52;136.32;;;23.40;42.00;;;;;;4915585;55;21001;-40
2021/12/11 16:50:23;;;;;;;163.20;132.30;;;23.40;41.90;;;;;;4969193;55;21515;-30
2021/12/11 16:55:24;;;;;;;167.55;133.98;;;23.40;42.00;;;;;;4748235;58;21046;-38
2021/12/11 17:00:27;;;;;;;155.52;127.00;;;23.40;41.90;;;;;;4914088;55;20998;-33
2021/12/11 17:05:28;;;;;;;157.37;126.10;;;23.40;41.90;;;;;;4748146;55;21025;-34
2021/12/11 17:10:44;;;;;;;158.25;125.18;;;23.40;41.90;;;;;;4748333;58;21057;-37
2021/12/11 17:15:45;;;;;;;149.87;120.62;;;23.40;41.90;;;;;;4898753;55;21008;-36
2021/12/11 17:20:46;;;;;;;152.30;122.10;;;23.40;41.90;;;;;;4748208;58;21009;-40
2021/12/11 17:25:50;;;;;;;153.80;123.65;;;23.40;41.90;;;;;;4827547;55;21014;-34
2021/12/11 17:30:54;;;;;;;149.00;121.07;;;23.40;41.80;;;;;;4862737;55;21085;-35
2021/12/11 17:35:55;;;;;;;147.00;121.53;;;23.40;41.80;;;;;;4882759;55;21595;-37
2021/12/11 17:40:56;;;;;;;146.30;118.80;;;23.40;41.80;;;;;;4808749;55;21551;-36
2021/12/11 17:45:57;;;;;;;147.00;121.55;;;23.40;41.70;;;;;;4910727;54;21532;-33
2021/12/11 17:51:01;;;;;;;148.27;120.37;;;23.40;41.70;;;;;;4828290;55;21017;-36
2021/12/11 17:56:06;;;;;;;144.30;120.53;;;23.40;41.70;;;;;;4794573;55;21448;-37
2021/12/11 18:01:16;;;;;;;143.30;117.60;;;23.40;41.60;;;;;;5114722;55;21457;-38
2021/12/11 18:06:20;;;;;;;142.95;118.80;;;23.50;41.70;;;;;;4853553;55;21081;-39
2021/12/11 18:11:33;;;;;;;143.02;117.10;;;23.50;41.60;;;;;;4953192;55;21086;-36
2021/12/11 18:16:46;;;;;;;140.77;113.32;;;23.50;41.60;;;;;;4808379;55;21535;-34
2021/12/11 18:21:55;;;;;;;141.77;117.10;;;23.50;41.60;;;;;;5200176;55;21575;-35
2021/12/11 18:27:03;;;;;;;139.30;116.70;;;23.50;41.60;;;;;;4847253;55;21592;-37
2021/12/11 18:32:10;;;;;;;138.57;115.15;;;23.50;41.60;;;;;;4747057;55;21074;-39
2021/12/11 18:37:22;;;;;;;;;;;23.50;41.50;;;;;;4894526;55;20970;-32
2021/12/11 18:42:31;;;;;;;142.23;115.88;;;23.50;41.50;;;;;;5088845;55;20065;-36
2021/12/11 18:47:31;;;;;;;135.35;111.53;;;23.50;41.50;;;;;;4747677;58;20989;-37
2021/12/11 18:52:35;;;;;;;138.75;111.20;;;23.50;41.40;;;;;;5071844;54;21134;-35
2021/12/11 18:57:41;;;;;;;139.43;112.03;;;23.50;41.40;;;;;;4747960;58;21496;-38
2021/12/11 19:02:46;;;;;;;137.03;112.73;;;23.50;41.40;;;;;;4983423;55;21506;-36
2021/12/11 19:07:46;;;;;;;130.52;108.37;;;23.50;41.40;;;;;;4747333;58;21460;-36
2021/12/11 19:12:48;;;;;;;131.65;109.70;;;23.50;41.40;;;;;;4830093;54;21073;-38
2021/12/11 19:17:51;;;;;;;133.68;111.65;;;23.50;41.40;;;;;;4747752;58;21116;-35
2021/12/11 19:22:55;;;;;;;137.52;112.97;;;23.50;41.40;;;;;;5016596;55;21213;-34
2021/12/11 19:27:57;;;;;;;131.70;110.37;;;23.50;41.30;;;;;;4848066;55;21683;-38
2021/12/11 19:33:05;;;;;;;128.30;107.65;;;23.50;41.30;;;;;;4888463;55;20985;-37
2021/12/11 19:38:07;;;;;;;129.63;109.95;;;23.50;41.30;;;;;;4821829;55;21467;-38
2021/12/11 19:43:10;;;;;;;132.73;109.50;;;23.50;41.30;;;;;;4775564;55;21021;-32
2021/12/11 19:48:20;;;;;;;126.57;107.80;;;23.50;41.20;;;;;;4774971;55;21018;-35
2021/12/11 19:53:22;;;;;;;126.03;105.10;;;23.50;41.20;;;;;;4748262;55;21058;-37
2021/12/11 19:58:24;;;;;;;125.95;106.70;;;23.50;41.20;;;;;;4820915;55;21060;-40
2021/12/11 20:03:29;;;;;;;124.05;104.03;;;23.50;41.80;;;;;;4821222;55;21057;-33
2021/12/11 20:08:36;;;;;;;126.62;106.55;;;23.50;41.10;;;;;;4825166;55;21492;-35
2021/12/11 20:13:40;;;;;;;125.05;104.38;;;23.50;41.10;;;;;;4878703;55;20990;-36
2021/12/11 20:18:46;;;;;;;121.85;104.55;;;23.50;41.10;;;;;;4748497;55;21063;-36
2021/12/11 20:23:49;;;;;;;124.10;103.18;;;23.50;41.00;;;;;;4863304;55;21032;-36
2021/12/11 20:28:53;;;;;;;117.90;98.95;;;23.50;41.00;;;;;;5036444;55;21082;-35
2021/12/11 20:33:54;;;;;;;114.68;96.57;;;23.50;41.00;;;;;;4803585;55;21484;-41
2021/12/11 20:38:59;;;;;;;120.65;101.60;;;23.50;40.90;;;;;;4748011;58;20986;-36
2021/12/11 20:44:04;;;;;;;112.03;96.32;;;23.50;40.90;;;;;;4875245;55;21428;-38
2021/12/11 20:49:07;;;;;;;115.45;95.45;;;23.50;40.90;;;;;;4864931;55;21052;-36
2021/12/11 20:54:13;;;;;;;113.82;95.47;;;23.50;40.80;;;;;;5193430;55;20981;-38
2021/12/11 20:59:17;;;;;;;113.47;95.20;;;23.50;40.80;;;;;;4769661;55;21507;-36
2021/12/11 21:04:32;;;;;;;107.90;90.55;;;23.50;40.80;;;;;;4923063;55;21483;-36
2021/12/11 21:09:58;;;;;;;108.72;92.82;;;23.50;40.80;;;;;;4771231;55;21013;-38
2021/12/11 21:15:03;;;;;;;109.20;93.53;;;23.50;40.70;;;;;;4875588;55;20990;-30
2021/12/11 21:20:20;;;;;;;104.47;90.15;;;23.50;40.70;;;;;;4783877;55;21005;-36
2021/12/11 21:25:29;;;;;;;106.22;90.32;;;23.50;40.70;;;;;;4748437;58;21008;-35
2021/12/11 21:30:34;;;;;;;106.63;87.95;;;23.50;40.60;;;;;;5033498;54;21511;-36
2021/12/11 21:35:38;;;;;;;101.70;87.80;;;23.50;40.60;;;;;;4849791;55;20985;-38
2021/12/11 21:40:48;;;;;;;103.15;86.60;;;23.50;40.60;;;;;;4809321;55;21535;-36
2021/12/11 21:46:00;;;;;;;96.43;82.07;;;23.50;40.50;;;;;;4989487;55;21061;-33
2021/12/11 21:51:17;;;;;;;100.03;85.30;;;23.50;40.50;;;;;;4914305;55;20981;-34
2021/12/11 21:56:18;;;;;;;;;;;23.60;40.50;;;;;;4945960;55;21049;-33
2021/12/11 22:01:30;;;;;;;98.53;83.18;;;23.50;40.50;;;;;;4776600;55;20068;-36
2021/12/11 22:06:44;;;;;;;93.82;81.07;;;23.50;40.40;;;;;;4806304;55;21014;-40
2021/12/11 22:11:47;;;;;;;94.13;79.72;;;23.50;40.40;;;;;;4825318;55;20986;-30
2021/12/11 22:17:02;;;;;;;95.12;79.53;;;23.50;40.40;;;;;;4926393;55;20998;-37
2021/12/11 22:22:06;;;;;;;92.62;79.87;;;23.50;40.30;;;;;;5001657;55;21109;-35
2021/12/11 22:27:13;;;;;;;85.93;73.72;;;23.60;40.40;;;;;;4747791;55;21083;-37
2021/12/11 22:32:16;;;;;;;88.32;75.18;;;23.50;40.30;;;;;;4816439;55;21037;-34
2021/12/11 22:37:22;;;;;;;86.93;74.07;;;23.50;40.40;;;;;;4765929;55;21069;-36
2021/12/11 22:42:29;;;;;;;86.80;75.25;;;23.40;40.40;;;;;;4748112;58;21041;-46
2021/12/11 22:47:34;;;;;;;89.28;75.75;;;23.40;40.50;;;;;;4789008;55;21061;-32
2021/12/11 22:52:36;;;;;;;87.45;74.50;;;23.40;40.50;;;;;;4881332;55;21472;-35
2021/12/11 22:57:38;;;;;;;84.13;71.65;;;23.30;40.40;;;;;;4748065;58;21100;-34
2021/12/11 23:02:39;;;;;;;84.00;70.95;;;23.40;40.50;;;;;;4748533;58;21186;-32
2021/12/11 23:07:48;;;;;;;82.88;70.00;;;23.30;40.40;;;;;;4940796;55;20997;-33
2021/12/11 23:12:55;;;;;;;79.72;68.35;;;23.30;40.40;;;;;;5005109;55;21001;-37
2021/12/11 23:18:11;;;;;;;76.32;64.75;;;23.30;40.40;;;;;;4884485;55;21543;-32
2021/12/11 23:25:52;;;;;;;74.97;64.35;;;23.30;40.40;;;;;;5234483;55;21535;-33
2021/12/11 23:31:04;;;;;;;76.93;66.03;;;23.30;40.40;;;;;;4820351;54;21030;-28
2021/12/11 23:36:10;;;;;;;70.87;61.08;;;23.40;40.40;;;;;;4748501;55;20990;-39
2021/12/11 23:41:17;;;;;;;72.93;62.70;;;23.30;40.30;;;;;;4792133;55;21070;-37
2021/12/11 23:46:19;;;;;;;71.65;60.70;;;23.30;40.30;;;;;;4748413;58;20989;-39
2021/12/11 23:51:32;;;;;;;72.30;61.05;;;23.30;40.40;;;;;;4881112;55;21096;-39
2021/12/11 23:56:37;;;;;;;65.37;55.78;;;23.30;40.20;;;;;;4761142;55;21025;-37
